sensor_id;sensor_type;location;lat;lon;timestamp;P1;durP1;ratioP1;P2;durP2;ratioP2
58468;SDS011;44257;44.804;10.220;2024-03-08T00:00:15;7.60;;;4.35;;
58468;SDS011;44257;44.804;10.220;2024-03-08T00:02:46;9.63;;;4.70;;
58468;SDS011;44257;44.804;10.220;2024-03-08T00:05:13;8.05;;;3.90;;
58468;SDS011;44257;44.804;10.220;2024-03-08T00:07:40;7.90;;;4.50;;
58468;SDS011;44257;44.804;10.220;2024-03-08T00:10:08;7.80;;;4.35;;
58468;SDS011;44257;44.804;10.220;2024-03-08T00:15:07;9.93;;;4.40;;
58468;SDS011;44257;44.804;10.220;2024-03-08T00:17:41;8.82;;;3.92;;
58468;SDS011;44257;44.804;10.220;2024-03-08T00:20:07;7.35;;;4.93;;
58468;SDS011;44257;44.804;10.220;2024-03-08T00:22:34;7.72;;;4.13;;
58468;SDS011;44257;44.804;10.220;2024-03-08T00:25:01;9.30;;;3.75;;
58468;SDS011;44257;44.804;10.220;2024-03-08T00:27:28;8.85;;;3.58;;
58468;SDS011;44257;44.804;10.220;2024-03-08T00:29:56;6.38;;;3.85;;
58468;SDS011;44257;44.804;10.220;2024-03-08T00:32:25;5.10;;;3.65;;
58468;SDS011;44257;44.804;10.220;2024-03-08T00:34:55;6.65;;;4.05;;
58468;SDS011;44257;44.804;10.220;2024-03-08T00:37:21;8.85;;;4.25;;
58468;SDS011;44257;44.804;10.220;2024-03-08T00:39:48;7.65;;;4.03;;
58468;SDS011;44257;44.804;10.220;2024-03-08T00:42:17;10.27;;;4.00;;
58468;SDS011;44257;44.804;10.220;2024-03-08T00:44:44;6.40;;;3.97;;
58468;SDS011;44257;44.804;10.220;2024-03-08T00:47:10;9.00;;;4.50;;
58468;SDS011;44257;44.804;10.220;2024-03-08T00:49:36;5.90;;;4.45;;
58468;SDS011;44257;44.804;10.220;2024-03-08T00:52:06;9.65;;;4.22;;
58468;SDS011;44257;44.804;10.220;2024-03-08T00:54:32;6.80;;;4.80;;
58468;SDS011;44257;44.804;10.220;2024-03-08T00:56:59;5.88;;;4.10;;
58468;SDS011;44257;44.804;10.220;2024-03-08T00:59:31;6.72;;;4.38;;
58468;SDS011;44257;44.804;10.220;2024-03-08T01:01:58;6.53;;;4.03;;
58468;SDS011;44257;44.804;10.220;2024-03-08T01:04:25;7.22;;;4.88;;
58468;SDS011;44257;44.804;10.220;2024-03-08T01:06:57;8.07;;;4.82;;
58468;SDS011;44257;44.804;10.220;2024-03-08T01:09:24;7.40;;;5.38;;
58468;SDS011;44257;44.804;10.220;2024-03-08T01:11:50;8.45;;;5.80;;
58468;SDS011;44257;44.804;10.220;2024-03-08T01:14:19;9.35;;;6.10;;
58468;SDS011;44257;44.804;10.220;2024-03-08T01:16:47;8.77;;;6.38;;
58468;SDS011;44257;44.804;10.220;2024-03-08T01:19:14;9.95;;;6.32;;
58468;SDS011;44257;44.804;10.220;2024-03-08T01:21:40;10.50;;;6.70;;
58468;SDS011;44257;44.804;10.220;2024-03-08T01:24:07;11.10;;;7.13;;
58468;SDS011;44257;44.804;10.220;2024-03-08T01:26:33;10.93;;;7.22;;
58468;SDS011;44257;44.804;10.220;2024-03-08T01:29:02;9.50;;;7.00;;
58468;SDS011;44257;44.804;10.220;2024-03-08T01:31:29;9.68;;;7.30;;
58468;SDS011;44257;44.804;10.220;2024-03-08T01:33:55;10.45;;;7.18;;
58468;SDS011;44257;44.804;10.220;2024-03-08T01:36:22;8.88;;;7.45;;
58468;SDS011;44257;44.804;10.220;2024-03-08T01:38:48;9.80;;;6.95;;
58468;SDS011;44257;44.804;10.220;2024-03-08T01:41:14;9.73;;;7.22;;
58468;SDS011;44257;44.804;10.220;2024-03-08T01:43:43;9.73;;;6.82;;
58468;SDS011;44257;44.804;10.220;2024-03-08T01:46:09;11.93;;;7.60;;
58468;SDS011;44257;44.804;10.220;2024-03-08T01:48:38;11.15;;;7.40;;
58468;SDS011;44257;44.804;10.220;2024-03-08T01:51:06;14.75;;;7.93;;
58468;SDS011;44257;44.804;10.220;2024-03-08T01:53:33;10.68;;;7.03;;
58468;SDS011;44257;44.804;10.220;2024-03-08T01:56:00;12.07;;;7.13;;
58468;SDS011;44257;44.804;10.220;2024-03-08T01:58:28;8.27;;;6.63;;
58468;SDS011;44257;44.804;10.220;2024-03-08T02:00:56;8.77;;;6.85;;
58468;SDS011;44257;44.804;10.220;2024-03-08T02:03:23;9.30;;;6.90;;
58468;SDS011;44257;44.804;10.220;2024-03-08T02:05:49;10.18;;;7.40;;
58468;SDS011;44257;44.804;10.220;2024-03-08T02:08:16;10.23;;;6.47;;
58468;SDS011;44257;44.804;10.220;2024-03-08T02:10:44;9.63;;;6.97;;
58468;SDS011;44257;44.804;10.220;2024-03-08T02:13:10;8.30;;;6.35;;
58468;SDS011;44257;44.804;10.220;2024-03-08T02:16:10;7.78;;;5.95;;
58468;SDS011;44257;44.804;10.220;2024-03-08T02:18:30;8.57;;;7.07;;
58468;SDS011;44257;44.804;10.220;2024-03-08T02:21:00;12.20;;;8.25;;
58468;SDS011;44257;44.804;10.220;2024-03-08T02:23:29;12.63;;;8.65;;
58468;SDS011;44257;44.804;10.220;2024-03-08T02:25:57;12.93;;;8.68;;
58468;SDS011;44257;44.804;10.220;2024-03-08T02:28:23;14.43;;;8.85;;
58468;SDS011;44257;44.804;10.220;2024-03-08T02:30:54;14.57;;;9.97;;
58468;SDS011;44257;44.804;10.220;2024-03-08T02:33:21;16.33;;;10.27;;
58468;SDS011;44257;44.804;10.220;2024-03-08T02:35:48;16.98;;;11.57;;
58468;SDS011;44257;44.804;10.220;2024-03-08T02:38:17;20.13;;;12.82;;
58468;SDS011;44257;44.804;10.220;2024-03-08T02:40:45;19.35;;;13.05;;
58468;SDS011;44257;44.804;10.220;2024-03-08T02:43:12;18.85;;;13.40;;
58468;SDS011;44257;44.804;10.220;2024-03-08T02:45:43;21.92;;;14.63;;
58468;SDS011;44257;44.804;10.220;2024-03-08T02:48:12;22.02;;;15.43;;
58468;SDS011;44257;44.804;10.220;2024-03-08T02:50:39;21.05;;;14.32;;
58468;SDS011;44257;44.804;10.220;2024-03-08T02:53:05;26.77;;;15.55;;
58468;SDS011;44257;44.804;10.220;2024-03-08T02:55:32;22.88;;;15.50;;
58468;SDS011;44257;44.804;10.220;2024-03-08T02:58:01;25.20;;;15.70;;
58468;SDS011;44257;44.804;10.220;2024-03-08T03:00:33;25.67;;;16.08;;
58468;SDS011;44257;44.804;10.220;2024-03-08T03:02:59;30.58;;;17.25;;
58468;SDS011;44257;44.804;10.220;2024-03-08T03:05:28;25.30;;;16.52;;
58468;SDS011;44257;44.804;10.220;2024-03-08T03:07:55;26.77;;;16.70;;
58468;SDS011;44257;44.804;10.220;2024-03-08T03:10:23;26.67;;;16.90;;
58468;SDS011;44257;44.804;10.220;2024-03-08T03:12:49;24.65;;;15.77;;
58468;SDS011;44257;44.804;10.220;2024-03-08T03:15:15;26.33;;;15.80;;
58468;SDS011;44257;44.804;10.220;2024-03-08T03:17:49;24.20;;;15.82;;
58468;SDS011;44257;44.804;10.220;2024-03-08T03:20:18;23.88;;;16.27;;
58468;SDS011;44257;44.804;10.220;2024-03-08T03:23:05;20.58;;;15.40;;
58468;SDS011;44257;44.804;10.220;2024-03-08T03:25:34;23.27;;;14.65;;
58468;SDS011;44257;44.804;10.220;2024-03-08T03:28:01;22.90;;;14.32;;
58468;SDS011;44257;44.804;10.220;2024-03-08T03:30:27;19.77;;;14.13;;
58468;SDS011;44257;44.804;10.220;2024-03-08T03:33:01;23.90;;;15.80;;
58468;SDS011;44257;44.804;10.220;2024-03-08T03:35:31;26.52;;;17.00;;
58468;SDS011;44257;44.804;10.220;2024-03-08T03:37:58;31.13;;;18.63;;
58468;SDS011;44257;44.804;10.220;2024-03-08T03:42:56;35.05;;;20.90;;
58468;SDS011;44257;44.804;10.220;2024-03-08T03:45:25;38.08;;;22.77;;
58468;SDS011;44257;44.804;10.220;2024-03-08T03:47:51;40.00;;;23.10;;
58468;SDS011;44257;44.804;10.220;2024-03-08T03:50:18;38.20;;;22.48;;
58468;SDS011;44257;44.804;10.220;2024-03-08T03:52:47;38.45;;;23.33;;
58468;SDS011;44257;44.804;10.220;2024-03-08T03:55:14;43.22;;;25.10;;
58468;SDS011;44257;44.804;10.220;2024-03-08T03:57:40;43.20;;;24.42;;
58468;SDS011;44257;44.804;10.220;2024-03-08T04:00:07;37.10;;;24.58;;
58468;SDS011;44257;44.804;10.220;2024-03-08T04:02:40;45.20;;;26.08;;
58468;SDS011;44257;44.804;10.220;2024-03-08T04:05:09;46.35;;;25.02;;
58468;SDS011;44257;44.804;10.220;2024-03-08T04:07:37;45.08;;;24.23;;
58468;SDS011;44257;44.804;10.220;2024-03-08T04:10:03;41.42;;;24.58;;
58468;SDS011;44257;44.804;10.220;2024-03-08T04:12:31;41.08;;;24.13;;
58468;SDS011;44257;44.804;10.220;2024-03-08T04:15:01;38.78;;;23.35;;
58468;SDS011;44257;44.804;10.220;2024-03-08T04:17:27;39.63;;;24.65;;
58468;SDS011;44257;44.804;10.220;2024-03-08T04:19:53;42.78;;;24.42;;
58468;SDS011;44257;44.804;10.220;2024-03-08T04:22:19;38.08;;;22.98;;
58468;SDS011;44257;44.804;10.220;2024-03-08T04:24:46;43.30;;;25.38;;
58468;SDS011;44257;44.804;10.220;2024-03-08T04:27:12;40.03;;;24.45;;
58468;SDS011;44257;44.804;10.220;2024-03-08T04:29:39;36.58;;;23.88;;
58468;SDS011;44257;44.804;10.220;2024-03-08T04:32:05;41.90;;;25.23;;
58468;SDS011;44257;44.804;10.220;2024-03-08T04:34:34;41.67;;;24.08;;
58468;SDS011;44257;44.804;10.220;2024-03-08T04:37:00;41.13;;;24.95;;
58468;SDS011;44257;44.804;10.220;2024-03-08T04:39:27;41.05;;;24.25;;
58468;SDS011;44257;44.804;10.220;2024-03-08T04:41:54;45.05;;;26.25;;
58468;SDS011;44257;44.804;10.220;2024-03-08T04:44:22;42.45;;;25.08;;
58468;SDS011;44257;44.804;10.220;2024-03-08T04:46:50;41.03;;;24.70;;
58468;SDS011;44257;44.804;10.220;2024-03-08T04:49:16;41.85;;;25.40;;
58468;SDS011;44257;44.804;10.220;2024-03-08T04:51:42;46.60;;;26.20;;
58468;SDS011;44257;44.804;10.220;2024-03-08T04:54:07;44.22;;;26.17;;
58468;SDS011;44257;44.804;10.220;2024-03-08T04:56:33;43.95;;;27.05;;
58468;SDS011;44257;44.804;10.220;2024-03-08T04:58:59;48.25;;;27.27;;
58468;SDS011;44257;44.804;10.220;2024-03-08T05:01:25;45.88;;;28.10;;
58468;SDS011;44257;44.804;10.220;2024-03-08T05:03:51;44.08;;;26.40;;
58468;SDS011;44257;44.804;10.220;2024-03-08T05:06:20;45.28;;;26.58;;
58468;SDS011;44257;44.804;10.220;2024-03-08T05:08:46;47.20;;;26.95;;
58468;SDS011;44257;44.804;10.220;2024-03-08T05:11:12;50.83;;;27.75;;
58468;SDS011;44257;44.804;10.220;2024-03-08T05:13:40;46.85;;;27.70;;
58468;SDS011;44257;44.804;10.220;2024-03-08T05:16:06;52.83;;;28.77;;
58468;SDS011;44257;44.804;10.220;2024-03-08T05:18:35;46.38;;;27.77;;
58468;SDS011;44257;44.804;10.220;2024-03-08T05:21:01;48.97;;;27.90;;
58468;SDS011;44257;44.804;10.220;2024-03-08T05:23:29;50.67;;;28.30;;
58468;SDS011;44257;44.804;10.220;2024-03-08T05:25:56;57.50;;;30.27;;
58468;SDS011;44257;44.804;10.220;2024-03-08T05:28:22;47.35;;;27.70;;
58468;SDS011;44257;44.804;10.220;2024-03-08T05:30:48;51.72;;;28.13;;
58468;SDS011;44257;44.804;10.220;2024-03-08T05:33:14;46.08;;;27.95;;
58468;SDS011;44257;44.804;10.220;2024-03-08T05:35:40;44.20;;;27.75;;
58468;SDS011;44257;44.804;10.220;2024-03-08T05:38:06;54.90;;;27.85;;
58468;SDS011;44257;44.804;10.220;2024-03-08T05:40:32;48.15;;;29.73;;
58468;SDS011;44257;44.804;10.220;2024-03-08T05:42:58;49.10;;;27.58;;
58468;SDS011;44257;44.804;10.220;2024-03-08T05:45:27;52.90;;;28.58;;
58468;SDS011;44257;44.804;10.220;2024-03-08T05:47:53;48.35;;;26.00;;
58468;SDS011;44257;44.804;10.220;2024-03-08T05:50:19;49.90;;;28.00;;
58468;SDS011;44257;44.804;10.220;2024-03-08T05:52:45;46.92;;;25.98;;
58468;SDS011;44257;44.804;10.220;2024-03-08T05:55:12;47.25;;;27.42;;
58468;SDS011;44257;44.804;10.220;2024-03-08T05:57:40;46.55;;;26.60;;
58468;SDS011;44257;44.804;10.220;2024-03-08T06:00:07;45.35;;;27.08;;
58468;SDS011;44257;44.804;10.220;2024-03-08T06:02:39;48.63;;;27.30;;
58468;SDS011;44257;44.804;10.220;2024-03-08T06:05:09;49.13;;;27.60;;
58468;SDS011;44257;44.804;10.220;2024-03-08T06:07:36;45.78;;;26.35;;
58468;SDS011;44257;44.804;10.220;2024-03-08T06:10:06;45.22;;;25.90;;
58468;SDS011;44257;44.804;10.220;2024-03-08T06:12:35;48.63;;;26.50;;
58468;SDS011;44257;44.804;10.220;2024-03-08T06:15:07;48.70;;;25.70;;
58468;SDS011;44257;44.804;10.220;2024-03-08T06:17:40;48.40;;;24.60;;
58468;SDS011;44257;44.804;10.220;2024-03-08T06:20:06;49.00;;;24.30;;
58468;SDS011;44257;44.804;10.220;2024-03-08T06:22:39;45.63;;;25.45;;
58468;SDS011;44257;44.804;10.220;2024-03-08T06:25:09;46.00;;;25.20;;
58468;SDS011;44257;44.804;10.220;2024-03-08T06:27:40;49.63;;;25.75;;
58468;SDS011;44257;44.804;10.220;2024-03-08T06:30:08;43.00;;;25.05;;
58468;SDS011;44257;44.804;10.220;2024-03-08T06:32:35;45.30;;;26.08;;
58468;SDS011;44257;44.804;10.220;2024-03-08T06:35:03;45.40;;;25.85;;
58468;SDS011;44257;44.804;10.220;2024-03-08T06:37:32;44.45;;;23.27;;
58468;SDS011;44257;44.804;10.220;2024-03-08T06:39:59;43.53;;;24.55;;
58468;SDS011;44257;44.804;10.220;2024-03-08T06:42:29;43.03;;;24.35;;
58468;SDS011;44257;44.804;10.220;2024-03-08T06:45:00;40.97;;;22.25;;
58468;SDS011;44257;44.804;10.220;2024-03-08T06:47:35;38.83;;;21.88;;
58468;SDS011;44257;44.804;10.220;2024-03-08T06:50:02;42.67;;;22.48;;
58468;SDS011;44257;44.804;10.220;2024-03-08T06:52:29;39.63;;;21.38;;
58468;SDS011;44257;44.804;10.220;2024-03-08T06:54:55;35.08;;;19.42;;
58468;SDS011;44257;44.804;10.220;2024-03-08T06:57:22;37.42;;;20.42;;
58468;SDS011;44257;44.804;10.220;2024-03-08T06:59:48;33.42;;;18.92;;
58468;SDS011;44257;44.804;10.220;2024-03-08T07:02:14;33.55;;;19.25;;
58468;SDS011;44257;44.804;10.220;2024-03-08T07:04:40;33.88;;;19.63;;
58468;SDS011;44257;44.804;10.220;2024-03-08T07:07:06;35.00;;;20.70;;
58468;SDS011;44257;44.804;10.220;2024-03-08T07:09:35;33.10;;;19.30;;
58468;SDS011;44257;44.804;10.220;2024-03-08T07:12:02;33.15;;;19.27;;
58468;SDS011;44257;44.804;10.220;2024-03-08T07:14:28;35.40;;;18.92;;
58468;SDS011;44257;44.804;10.220;2024-03-08T07:16:54;36.28;;;19.83;;
58468;SDS011;44257;44.804;10.220;2024-03-08T07:19:20;32.15;;;18.90;;
58468;SDS011;44257;44.804;10.220;2024-03-08T07:21:46;31.88;;;18.55;;
58468;SDS011;44257;44.804;10.220;2024-03-08T07:24:13;32.67;;;17.52;;
58468;SDS011;44257;44.804;10.220;2024-03-08T07:26:42;27.08;;;15.80;;
58468;SDS011;44257;44.804;10.220;2024-03-08T07:29:08;27.90;;;16.48;;
58468;SDS011;44257;44.804;10.220;2024-03-08T07:31:34;26.80;;;16.58;;
58468;SDS011;44257;44.804;10.220;2024-03-08T07:34:15;26.73;;;16.85;;
58468;SDS011;44257;44.804;10.220;2024-03-08T07:36:42;27.80;;;17.08;;
58468;SDS011;44257;44.804;10.220;2024-03-08T07:39:08;27.30;;;16.15;;
58468;SDS011;44257;44.804;10.220;2024-03-08T07:41:39;28.02;;;16.02;;
58468;SDS011;44257;44.804;10.220;2024-03-08T07:44:08;29.08;;;15.82;;
58468;SDS011;44257;44.804;10.220;2024-03-08T07:46:34;25.95;;;15.93;;
58468;SDS011;44257;44.804;10.220;2024-03-08T07:49:01;26.85;;;15.95;;
58468;SDS011;44257;44.804;10.220;2024-03-08T07:51:28;29.10;;;16.38;;
58468;SDS011;44257;44.804;10.220;2024-03-08T07:53:54;27.00;;;16.35;;
58468;SDS011;44257;44.804;10.220;2024-03-08T07:56:20;27.30;;;16.33;;
58468;SDS011;44257;44.804;10.220;2024-03-08T07:58:47;27.33;;;16.75;;
58468;SDS011;44257;44.804;10.220;2024-03-08T08:01:17;27.30;;;17.58;;
58468;SDS011;44257;44.804;10.220;2024-03-08T08:03:43;31.83;;;18.20;;
58468;SDS011;44257;44.804;10.220;2024-03-08T08:06:09;31.60;;;19.02;;
58468;SDS011;44257;44.804;10.220;2024-03-08T08:08:43;32.47;;;20.10;;
58468;SDS011;44257;44.804;10.220;2024-03-08T08:11:10;30.88;;;19.90;;
58468;SDS011;44257;44.804;10.220;2024-03-08T08:13:40;30.67;;;19.77;;
58468;SDS011;44257;44.804;10.220;2024-03-08T08:16:08;30.67;;;19.55;;
58468;SDS011;44257;44.804;10.220;2024-03-08T08:18:35;31.27;;;18.65;;
58468;SDS011;44257;44.804;10.220;2024-03-08T08:21:02;33.95;;;20.20;;
58468;SDS011;44257;44.804;10.220;2024-03-08T08:23:29;29.77;;;20.23;;
58468;SDS011;44257;44.804;10.220;2024-03-08T08:25:55;35.35;;;21.65;;
58468;SDS011;44257;44.804;10.220;2024-03-08T08:28:21;32.05;;;20.98;;
58468;SDS011;44257;44.804;10.220;2024-03-08T08:30:47;34.33;;;21.42;;
58468;SDS011;44257;44.804;10.220;2024-03-08T08:33:14;30.15;;;20.38;;
58468;SDS011;44257;44.804;10.220;2024-03-08T08:35:40;34.38;;;20.98;;
58468;SDS011;44257;44.804;10.220;2024-03-08T08:38:06;34.00;;;22.48;;
58468;SDS011;44257;44.804;10.220;2024-03-08T08:40:34;35.95;;;22.05;;
58468;SDS011;44257;44.804;10.220;2024-03-08T08:43:02;30.38;;;20.60;;
58468;SDS011;44257;44.804;10.220;2024-03-08T08:45:31;32.00;;;20.13;;
58468;SDS011;44257;44.804;10.220;2024-03-08T08:47:57;30.63;;;21.30;;
58468;SDS011;44257;44.804;10.220;2024-03-08T08:50:25;31.33;;;19.73;;
58468;SDS011;44257;44.804;10.220;2024-03-08T08:52:53;34.40;;;21.55;;
58468;SDS011;44257;44.804;10.220;2024-03-08T08:55:20;37.28;;;22.15;;
58468;SDS011;44257;44.804;10.220;2024-03-08T08:57:56;32.78;;;21.92;;
58468;SDS011;44257;44.804;10.220;2024-03-08T09:00:22;32.95;;;21.48;;
58468;SDS011;44257;44.804;10.220;2024-03-08T09:02:52;30.70;;;20.45;;
58468;SDS011;44257;44.804;10.220;2024-03-08T09:05:20;29.73;;;20.02;;
58468;SDS011;44257;44.804;10.220;2024-03-08T09:07:46;32.85;;;20.92;;
58468;SDS011;44257;44.804;10.220;2024-03-08T09:10:12;33.47;;;20.50;;
58468;SDS011;44257;44.804;10.220;2024-03-08T09:12:39;30.67;;;19.83;;
58468;SDS011;44257;44.804;10.220;2024-03-08T09:15:05;27.08;;;19.27;;
58468;SDS011;44257;44.804;10.220;2024-03-08T09:17:36;28.27;;;19.67;;
58468;SDS011;44257;44.804;10.220;2024-03-08T09:20:09;27.13;;;19.58;;
58468;SDS011;44257;44.804;10.220;2024-03-08T09:22:35;30.13;;;20.30;;
58468;SDS011;44257;44.804;10.220;2024-03-08T09:25:02;28.83;;;19.42;;
58468;SDS011;44257;44.804;10.220;2024-03-08T09:27:30;24.95;;;17.40;;
58468;SDS011;44257;44.804;10.220;2024-03-08T09:29:56;26.02;;;17.92;;
58468;SDS011;44257;44.804;10.220;2024-03-08T09:32:22;24.38;;;17.98;;
58468;SDS011;44257;44.804;10.220;2024-03-08T09:34:48;28.80;;;18.10;;
58468;SDS011;44257;44.804;10.220;2024-03-08T09:37:14;25.85;;;18.20;;
58468;SDS011;44257;44.804;10.220;2024-03-08T09:39:39;28.40;;;19.38;;
58468;SDS011;44257;44.804;10.220;2024-03-08T09:42:05;24.77;;;18.17;;
58468;SDS011;44257;44.804;10.220;2024-03-08T09:44:31;25.33;;;17.65;;
58468;SDS011;44257;44.804;10.220;2024-03-08T09:46:58;26.35;;;17.65;;
58468;SDS011;44257;44.804;10.220;2024-03-08T09:49:24;23.20;;;17.33;;
58468;SDS011;44257;44.804;10.220;2024-03-08T09:51:50;25.17;;;17.90;;
58468;SDS011;44257;44.804;10.220;2024-03-08T09:54:17;26.10;;;18.52;;
58468;SDS011;44257;44.804;10.220;2024-03-08T09:56:45;28.13;;;17.88;;
58468;SDS011;44257;44.804;10.220;2024-03-08T09:59:14;26.55;;;18.15;;
58468;SDS011;44257;44.804;10.220;2024-03-08T10:01:52;25.77;;;18.05;;
58468;SDS011;44257;44.804;10.220;2024-03-08T10:04:24;26.23;;;17.42;;
58468;SDS011;44257;44.804;10.220;2024-03-08T10:06:53;23.55;;;16.58;;
58468;SDS011;44257;44.804;10.220;2024-03-08T10:09:21;24.10;;;16.13;;
58468;SDS011;44257;44.804;10.220;2024-03-08T10:11:50;22.77;;;16.80;;
58468;SDS011;44257;44.804;10.220;2024-03-08T10:14:18;21.92;;;16.02;;
58468;SDS011;44257;44.804;10.220;2024-03-08T10:16:44;22.48;;;16.42;;
58468;SDS011;44257;44.804;10.220;2024-03-08T10:19:12;22.83;;;17.05;;
58468;SDS011;44257;44.804;10.220;2024-03-08T10:21:47;22.65;;;15.93;;
58468;SDS011;44257;44.804;10.220;2024-03-08T10:24:22;23.00;;;15.15;;
58468;SDS011;44257;44.804;10.220;2024-03-08T10:26:52;21.95;;;15.88;;
58468;SDS011;44257;44.804;10.220;2024-03-08T10:29:19;20.40;;;14.27;;
58468;SDS011;44257;44.804;10.220;2024-03-08T10:31:45;21.42;;;15.57;;
58468;SDS011;44257;44.804;10.220;2024-03-08T10:34:11;23.33;;;15.77;;
58468;SDS011;44257;44.804;10.220;2024-03-08T10:36:37;21.02;;;15.15;;
58468;SDS011;44257;44.804;10.220;2024-03-08T10:39:13;22.73;;;15.93;;
58468;SDS011;44257;44.804;10.220;2024-03-08T10:41:48;19.85;;;15.30;;
58468;SDS011;44257;44.804;10.220;2024-03-08T10:49:47;20.20;;;14.73;;
58468;SDS011;44257;44.804;10.220;2024-03-08T10:52:38;20.25;;;14.73;;
58468;SDS011;44257;44.804;10.220;2024-03-08T10:55:05;21.52;;;13.95;;
58468;SDS011;44257;44.804;10.220;2024-03-08T10:57:38;22.23;;;15.07;;
58468;SDS011;44257;44.804;10.220;2024-03-08T11:00:06;22.63;;;14.23;;
58468;SDS011;44257;44.804;10.220;2024-03-08T11:02:36;19.13;;;14.60;;
58468;SDS011;44257;44.804;10.220;2024-03-08T11:05:05;19.42;;;12.95;;
58468;SDS011;44257;44.804;10.220;2024-03-08T11:07:40;21.05;;;13.82;;
58468;SDS011;44257;44.804;10.220;2024-03-08T11:10:18;18.15;;;13.18;;
58468;SDS011;44257;44.804;10.220;2024-03-08T11:12:45;20.10;;;12.60;;
58468;SDS011;44257;44.804;10.220;2024-03-08T11:15:13;18.45;;;13.70;;
58468;SDS011;44257;44.804;10.220;2024-03-08T11:17:48;20.85;;;14.15;;
58468;SDS011;44257;44.804;10.220;2024-03-08T11:20:17;20.08;;;14.88;;
58468;SDS011;44257;44.804;10.220;2024-03-08T11:22:55;21.17;;;14.57;;
58468;SDS011;44257;44.804;10.220;2024-03-08T11:33:24;18.55;;;13.07;;
58468;SDS011;44257;44.804;10.220;2024-03-08T11:36:05;17.67;;;13.93;;
58468;SDS011;44257;44.804;10.220;2024-03-08T11:38:43;18.90;;;13.68;;
58468;SDS011;44257;44.804;10.220;2024-03-08T11:41:09;18.02;;;13.82;;
58468;SDS011;44257;44.804;10.220;2024-03-08T11:43:42;17.23;;;13.40;;
58468;SDS011;44257;44.804;10.220;2024-03-08T11:46:09;17.30;;;13.82;;
58468;SDS011;44257;44.804;10.220;2024-03-08T11:48:39;18.02;;;13.48;;
58468;SDS011;44257;44.804;10.220;2024-03-08T11:51:07;16.27;;;12.77;;
58468;SDS011;44257;44.804;10.220;2024-03-08T11:53:34;18.73;;;13.32;;
58468;SDS011;44257;44.804;10.220;2024-03-08T11:56:08;17.00;;;13.73;;
58468;SDS011;44257;44.804;10.220;2024-03-08T11:58:34;15.07;;;12.60;;
58468;SDS011;44257;44.804;10.220;2024-03-08T12:01:04;17.20;;;13.25;;
58468;SDS011;44257;44.804;10.220;2024-03-08T12:03:31;18.25;;;12.93;;
58468;SDS011;44257;44.804;10.220;2024-03-08T12:06:00;15.75;;;12.85;;
58468;SDS011;44257;44.804;10.220;2024-03-08T12:08:30;14.95;;;12.40;;
58468;SDS011;44257;44.804;10.220;2024-03-08T12:10:57;18.00;;;14.05;;
58468;SDS011;44257;44.804;10.220;2024-03-08T12:13:26;14.10;;;11.82;;
58468;SDS011;44257;44.804;10.220;2024-03-08T12:15:58;14.38;;;12.38;;
58468;SDS011;44257;44.804;10.220;2024-03-08T12:18:28;15.15;;;12.57;;
58468;SDS011;44257;44.804;10.220;2024-03-08T12:23:35;11.85;;;9.63;;
58468;SDS011;44257;44.804;10.220;2024-03-08T12:26:12;16.05;;;13.30;;
58468;SDS011;44257;44.804;10.220;2024-03-08T12:28:40;16.73;;;13.55;;
58468;SDS011;44257;44.804;10.220;2024-03-08T12:31:08;15.80;;;12.98;;
58468;SDS011;44257;44.804;10.220;2024-03-08T12:36:24;14.18;;;11.98;;
58468;SDS011;44257;44.804;10.220;2024-03-08T12:38:50;18.08;;;14.52;;
58468;SDS011;44257;44.804;10.220;2024-03-08T12:41:20;17.50;;;14.18;;
58468;SDS011;44257;44.804;10.220;2024-03-08T12:43:46;15.00;;;12.13;;
58468;SDS011;44257;44.804;10.220;2024-03-08T12:46:16;14.13;;;12.13;;
58468;SDS011;44257;44.804;10.220;2024-03-08T12:48:45;14.30;;;11.52;;
58468;SDS011;44257;44.804;10.220;2024-03-08T12:51:21;15.52;;;11.38;;
58468;SDS011;44257;44.804;10.220;2024-03-08T12:53:47;15.57;;;11.43;;
58468;SDS011;44257;44.804;10.220;2024-03-08T12:56:13;14.48;;;12.38;;
58468;SDS011;44257;44.804;10.220;2024-03-08T12:58:44;15.55;;;11.80;;
58468;SDS011;44257;44.804;10.220;2024-03-08T13:01:10;14.23;;;11.57;;
58468;SDS011;44257;44.804;10.220;2024-03-08T13:03:37;14.93;;;11.45;;
58468;SDS011;44257;44.804;10.220;2024-03-08T13:06:04;16.30;;;13.07;;
58468;SDS011;44257;44.804;10.220;2024-03-08T13:08:42;14.80;;;11.60;;
58468;SDS011;44257;44.804;10.220;2024-03-08T13:11:09;14.43;;;10.95;;
58468;SDS011;44257;44.804;10.220;2024-03-08T13:13:39;16.17;;;11.05;;
58468;SDS011;44257;44.804;10.220;2024-03-08T13:16:06;14.93;;;12.10;;
58468;SDS011;44257;44.804;10.220;2024-03-08T13:18:34;16.00;;;11.85;;
58468;SDS011;44257;44.804;10.220;2024-03-08T13:21:00;15.88;;;10.73;;
58468;SDS011;44257;44.804;10.220;2024-03-08T13:23:35;14.10;;;10.93;;
58468;SDS011;44257;44.804;10.220;2024-03-08T13:26:08;47.70;;;41.80;;
58468;SDS011;44257;44.804;10.220;2024-03-08T13:28:42;20.30;;;18.23;;
58468;SDS011;44257;44.804;10.220;2024-03-08T13:31:14;16.48;;;12.55;;
58468;SDS011;44257;44.804;10.220;2024-03-08T13:33:40;16.95;;;15.15;;
58468;SDS011;44257;44.804;10.220;2024-03-08T13:36:10;16.67;;;13.30;;
58468;SDS011;44257;44.804;10.220;2024-03-08T13:38:42;14.23;;;11.73;;
58468;SDS011;44257;44.804;10.220;2024-03-08T13:41:09;13.38;;;11.82;;
58468;SDS011;44257;44.804;10.220;2024-03-08T13:43:43;14.13;;;11.18;;
58468;SDS011;44257;44.804;10.220;2024-03-08T13:46:12;14.80;;;11.68;;
58468;SDS011;44257;44.804;10.220;2024-03-08T13:48:38;13.82;;;11.45;;
58468;SDS011;44257;44.804;10.220;2024-03-08T13:51:07;13.77;;;11.15;;
58468;SDS011;44257;44.804;10.220;2024-03-08T13:53:35;15.15;;;11.25;;
58468;SDS011;44257;44.804;10.220;2024-03-08T13:56:01;15.52;;;11.75;;
58468;SDS011;44257;44.804;10.220;2024-03-08T13:58:28;18.85;;;12.40;;
58468;SDS011;44257;44.804;10.220;2024-03-08T14:00:54;17.02;;;12.40;;
58468;SDS011;44257;44.804;10.220;2024-03-08T14:03:20;18.45;;;12.18;;
58468;SDS011;44257;44.804;10.220;2024-03-08T14:05:47;15.95;;;13.27;;
58468;SDS011;44257;44.804;10.220;2024-03-08T14:08:13;19.45;;;13.57;;
58468;SDS011;44257;44.804;10.220;2024-03-08T14:10:39;17.85;;;14.15;;
58468;SDS011;44257;44.804;10.220;2024-03-08T14:13:05;19.50;;;15.25;;
58468;SDS011;44257;44.804;10.220;2024-03-08T14:15:32;18.02;;;14.20;;
58468;SDS011;44257;44.804;10.220;2024-03-08T14:17:58;17.27;;;14.38;;
58468;SDS011;44257;44.804;10.220;2024-03-08T14:20:24;23.42;;;18.50;;
58468;SDS011;44257;44.804;10.220;2024-03-08T14:22:51;20.88;;;16.45;;
58468;SDS011;44257;44.804;10.220;2024-03-08T14:25:18;17.08;;;13.35;;
58468;SDS011;44257;44.804;10.220;2024-03-08T14:27:45;18.25;;;15.85;;
58468;SDS011;44257;44.804;10.220;2024-03-08T14:30:12;19.50;;;13.68;;
58468;SDS011;44257;44.804;10.220;2024-03-08T14:32:38;17.55;;;13.40;;
58468;SDS011;44257;44.804;10.220;2024-03-08T14:35:06;16.40;;;13.00;;
58468;SDS011;44257;44.804;10.220;2024-03-08T14:37:33;15.48;;;12.95;;
58468;SDS011;44257;44.804;10.220;2024-03-08T14:39:59;17.38;;;13.43;;
58468;SDS011;44257;44.804;10.220;2024-03-08T14:42:25;16.48;;;13.05;;